createdAt,value
2023-05-09T00:08:47.163Z,2691.27539
2023-05-09T00:23:49.268Z,2364.51807
2023-05-09T00:38:51.216Z,11138.94238
2023-05-09T00:53:53.265Z,7812.04395
2023-05-09T01:08:55.261Z,3628.2312
2023-05-09T01:23:57.242Z,3776.07227
2023-05-09T01:38:59.407Z,1200.62146
2023-05-09T01:54:01.389Z,1159.18823
2023-05-09T02:09:03.341Z,835.25592
2023-05-09T02:24:05.417Z,644.09814
2023-05-09T02:39:07.413Z,473.65695
2023-05-09T02:54:09.407Z,302.27411
2023-05-09T03:09:11.381Z,130.89128
2023-05-09T03:24:13.325Z,28.24992
2023-05-09T03:39:15.385Z,2.82499
2023-05-09T03:54:17.416Z,0
2023-05-09T04:09:19.388Z,0
2023-05-09T04:24:21.502Z,0
2023-05-09T04:39:23.471Z,0
2023-05-09T04:54:25.455Z,0
2023-05-09T05:09:27.485Z,0
2023-05-09T05:24:29.458Z,0
2023-05-09T05:39:31.455Z,0
2023-05-09T05:54:33.398Z,0
2023-05-09T06:09:35.339Z,0
2023-05-09T06:24:37.549Z,0
2023-05-09T06:39:39.500Z,0
2023-05-09T06:54:41.691Z,0
2023-05-09T07:09:43.686Z,0
2023-05-09T07:24:45.658Z,0
2023-05-09T07:39:47.684Z,0
2023-05-09T07:54:49.845Z,0
2023-05-09T08:09:51.846Z,0
2023-05-09T08:24:53.885Z,0
2023-05-09T08:39:55.866Z,0
2023-05-09T08:54:58.777Z,0
2023-05-09T09:10:00.781Z,0
2023-05-09T09:25:02.719Z,0
2023-05-09T09:40:04.770Z,0
2023-05-09T09:55:06.990Z,0
2023-05-09T10:10:09.076Z,0
2023-05-09T10:25:11.066Z,0
2023-05-09T10:40:13.038Z,0
2023-05-09T10:55:15.270Z,0
2023-05-09T11:10:17.613Z,0
2023-05-09T11:25:19.601Z,0
2023-05-09T11:40:21.696Z,0
2023-05-09T11:55:23.781Z,3.76666
2023-05-09T12:10:25.781Z,27.30825
2023-05-09T12:25:27.757Z,82.86642
2023-05-09T12:40:29.855Z,155.37454
2023-05-09T12:55:31.965Z,338.99902
2023-05-09T13:10:33.915Z,528.27344
2023-05-09T13:25:35.905Z,715.66455
2023-05-09T13:40:38.126Z,1328.68774
2023-05-09T13:55:40.094Z,1030.1803
2023-05-09T14:10:42.117Z,1661.09521
2023-05-09T14:25:44.139Z,2358.86816
2023-05-09T14:40:46.204Z,2331.55981
2023-05-09T14:55:48.245Z,6073.73242
2023-05-09T15:10:50.203Z,5485.19238
2023-05-09T15:25:52.339Z,8643.5332
2023-05-09T15:40:54.328Z,8780.07422
2023-05-09T15:55:56.312Z,8554.0752
2023-05-09T16:10:58.309Z,9142.61523
2023-05-09T16:26:00.449Z,9701.96289
2023-05-09T16:41:02.464Z,10291.44531
2023-05-09T16:56:04.515Z,10747.20996
2023-05-09T17:11:06.493Z,11289.6084
2023-05-09T17:26:08.539Z,4347.66211
2023-05-09T17:41:10.582Z,6208.39014
2023-05-09T17:56:12.609Z,4177.22119
2023-05-09T18:11:14.763Z,8018.26807
2023-05-09T18:26:16.808Z,8538.06641
2023-05-09T18:41:18.848Z,10415.74414
2023-05-09T18:56:20.833Z,10417.62793
2023-05-09T19:11:22.853Z,9293.28125
2023-05-09T19:26:24.933Z,11075.85059
2023-05-09T19:41:26.976Z,9416.63965
2023-05-09T19:56:28.942Z,6611.42236
2023-05-09T20:11:30.933Z,7122.74609
2023-05-09T20:26:32.995Z,4813.78613
2023-05-09T20:41:34.906Z,4224.3042
2023-05-09T20:56:36.946Z,5966.38281
2023-05-09T21:11:39.127Z,9418.52246
2023-05-09T21:26:41.117Z,9166.15625
2023-05-09T21:41:43.072Z,2691.27539
2023-05-09T21:56:45.049Z,2860.7749
2023-05-09T22:11:47.157Z,2952.11646
2023-05-09T22:26:49.295Z,3500.16479
2023-05-09T22:41:51.234Z,3842.93042
2023-05-09T22:56:53.294Z,10242.47852
2023-05-09T23:11:55.265Z,12752.9541
2023-05-09T23:26:57.280Z,11463.81641
2023-05-09T23:41:59.324Z,10802.76855
2023-05-09T23:57:01.439Z,13245.44434
